Weather observations for the past three days for
Elbow Lake Municipal Airport
Metric (Imperial)
Date Time (cdt) Wind (kph) Vis. (km) Weather Sky Cond. Temperature (ºC) Relative Humidity Wind Chill (°C) Heat Index (°C) Pressure Precipitation (cm)
Air Dwpt 6 hour altimeter (cm) sea level (mb) 1 hr 3 hr 6 hr
Max. Min.
04 08:35 NW 35 G 50 16.09 Fair and Breezy CLR 9 0.3 55% 5 75.06 0.0
04 08:15 NW 41 G 54 16.09 Fair and Breezy CLR 9 0.2 54% 5 75.03 0.0
04 07:55 NW 44 G 56 16.09 Mostly Cloudy and Windy BKN100 10.1 2.3 59% 75.01 0.0
04 07:35 W 26 G 41 16.09 Overcast OVC100 10.2 2.5 59% 74.98 0.0
04 07:15 W 24 16.09 Overcast OVC100 9.5 2.7 63% 7 74.98 0.0
04 06:55 W 20 16.09 Mostly Cloudy BKN100 BKN120 9.1 2.6 16 8.2 64% 6 74.93 0.0
04 06:35 W 17 16.09 Mostly Cloudy SCT100 BKN120 8.5 2.5 66% 6 74.9 0.0
04 06:15 W 11 16.09 Partly Cloudy SCT110 8.2 2.4 67% 7 74.88 0.0
04 05:55 W 11 16.09 Fair CLR 8.5 2.6 67% 7 74.88 0.0
04 05:35 NW 11 16.09 Fair CLR 8.6 2.5 66% 7 74.85 0.0
04 05:15 NW 11 16.09 Fair CLR 9.6 2.5 62% 8 74.83 0.0
04 04:55 NW 13 16.09 Fair CLR 10.7 3.1 60% 74.83 0.0
04 04:35 N 19 16.09 Fair CLR 11 2.7 57% 74.83 0.0
04 04:15 N 28 G 43 16.09 Fair CLR 11.2 2.7 56% 74.83 0.0
04 03:55 N 31 G 44 16.09 Fair CLR 11.7 2.8 55% 74.8 0.0
04 03:35 N 35 G 57 16.09 Partly Cloudy and Breezy SCT120 12.6 3 52% 74.8 0.0
04 03:15 W 37 G 44 16.09 Mostly Cloudy and Breezy SCT080 SCT100 BKN120 15.7 2 40% 74.73 0.0
04 02:55 W 39 G 54 16.09 Overcast and Breezy SCT080 SCT100 OVC120 15.3 1.1 38% 74.75 0.0
04 02:35 SW 39 G 46 16.09 Mostly Cloudy and Breezy BKN120 14.8 0.6 38% 74.65 0.0
04 02:15 SW 35 G 43 16.09 Mostly Cloudy and Breezy BKN120 14.4 0 38% 74.68 0.0
04 01:55 SW 35 16.09 Partly Cloudy and Breezy SCT120 14.3 -0.3 37% 74.7 0.0
04 01:35 SW 35 16.09 Fair and Breezy CLR 14.4 -0.8 35% 74.73 0.0
04 01:15 SW 35 G 44 16.09 Fair and Breezy CLR 14.7 -1.2 34% 74.75 0.0
04 00:55 SW 33 G 43 16.09 Fair and Breezy CLR 15.1 -1.5 21 14.2 32% 74.8 0.0
04 00:35 SW 30 G 43 16.09 Fair CLR 15.1 -1.3 33% 74.83 0.0
04 00:15 SW 28 G 37 16.09 Fair CLR 15.1 -1.3 33% 74.85 0.0
03 23:55 SW 31 G 37 16.09 Fair CLR 15.5 -1.6 31% 74.88 0.0
03 23:35 SW 26 G 33 16.09 Fair CLR 15.5 -1.4 32% 74.93 0.0
03 23:15 SW 24 16.09 Fair CLR 15 -0.6 35% 74.96 0.0
03 22:55 SW 26 16.09 Fair CLR 14.8 -0.2 36% 74.98 0.0
03 22:35 SW 22 16.09 Fair CLR 14.6 0 37% 75.03 0.0
03 22:15 S 19 16.09 Fair CLR 14.5 0.1 38% 75.06 0.0
03 21:55 S 19 16.09 Fair CLR 14.2 0.1 38% 75.08 0.0
03 21:35 SW 15 16.09 Fair CLR 14.6 0 37% 75.11 0.0
03 21:15 S 15 16.09 Fair CLR 15 -0.2 36% 75.11 0.0
03 20:55 SW 13 16.09 Fair CLR 15 -0.5 35% 75.16 0.0
03 20:35 SW 13 16.09 Fair CLR 16.1 -0.5 32% 75.18 0.0
03 20:15 SW 17 16.09 Fair CLR 17.9 -1.3 27% 75.21 0.0
03 19:55 W 20 16.09 Fair CLR 19.4 -1.9 24% 75.23 0.0
03 19:35 W 28 16.09 Fair CLR 20.5 -2 22% 75.26 0.0
03 19:15 W 22 16.09 Fair CLR 20.7 -1.6 22% 75.26 0.0
03 18:55 W 28 G 37 16.09 Fair CLR 20.9 -2.3 21.5 16.5 21% 75.29 0.0
03 18:35 W 31 G 43 16.09 Fair CLR 21.1 -2.7 20% 75.31 0.0
03 18:15 W 20 16.09 Fair CLR 21.1 -1.6 22% 75.34 0.0
03 17:55 W 20 G 35 16.09 Fair CLR 20.6 -1.9 22% 75.36 0.0
03 17:35 W 30 G 41 16.09 Fair CLR 20.9 -2.9 20% 75.39 0.0
03 17:15 W 22 G 39 16.09 Fair CLR 21 -2.6 20% 75.39 0.0
03 16:55 W 24 G 39 16.09 Fair CLR 20.7 -2.6 21% 75.41 0.0
03 16:35 NW 13 G 33 16.09 Fair CLR 20.9 -3 20% 75.44 0.0
03 16:15 W 19 G 39 16.09 Fair CLR 20.8 -2.9 20% 75.46 0.0
03 15:55 NW 15 G 33 16.09 Fair CLR 20.2 -2.5 22% 75.49 0.0
03 15:35 NW 19 16.09 Fair CLR 20.5 -2.2 22% 75.51 0.0
03 15:15 W 11 G 30 16.09 Fair CLR 19.8 -1.8 23% 75.54 0.0
03 14:55 NW 19 G 30 16.09 Fair CLR 19.4 -2 24% 75.57 0.0
03 14:35 NW 17 G 28 16.09 Fair CLR 19.1 -2.5 23% 75.59 0.0
03 14:15 NW 19 G 31 16.09 Fair CLR 18.9 -2.8 23% 75.62 0.0
03 13:55 NW 19 G 26 16.09 Fair CLR 18 -1.8 26% 75.64 0.0
03 13:35 N 17 G 30 16.09 Fair CLR 17.9 -2.3 25% 75.67 0.0
03 13:15 NW 13 16.09 Fair CLR 17.4 -2.2 26% 75.69 0.0
03 12:55 NW 26 16.09 Fair CLR 16.9 -1.9 17.1 5.4 28% 75.74 0.0
03 12:35 NW 20 G 35 16.09 Fair CLR 16.3 -1.8 29% 75.77 0.0
03 12:15 NW 26 G 39 16.09 Fair CLR 16.7 -1.6 29% 75.77 0.0
03 11:35 NW 24 G 37 16.09 Fair CLR 15.7 -1.4 31% 75.77 0.0
03 11:15 N 13 G 28 16.09 Fair CLR 15.3 -3.4 28% 75.79 0.0
03 10:55 NW 19 G 28 16.09 Fair CLR 15.2 -3.8 27% 75.79 0.0
03 10:35 N 17 16.09 Fair CLR 14.7 -1.9 32% 75.79 0.0
03 10:15 NW 20 G 26 16.09 Fair CLR 14.2 -0.2 37% 75.79 0.0
03 09:35 NW 17 16.09 Fair CLR 12.7 1.3 46% 75.79 0.0
03 09:15 NW 15 16.09 Fair CLR 11.7 2.3 53% 75.79 0.0
03 08:55 NW 17 16.09 Fair CLR 10.6 2.4 57% 75.79 0.0
03 08:35 NW 15 16.09 Fair CLR 9.7 2.8 62% 8 75.77 0.0
03 08:15 NW 13 16.09 Fair CLR 8.7 2.6 66% 7 75.74 0.0
03 07:55 NW 15 16.09 Fair CLR 7.7 2.8 71% 5 75.74 0.0
03 07:35 NW 13 16.09 Fair CLR 7 3 76% 5 75.72 0.0
03 07:15 NW 17 16.09 Fair CLR 6.5 2.7 77% 4 75.69 0.0
03 06:55 NW 13 16.09 Fair CLR 5.3 2.6 11 4.5 83% 3 75.67 0.0
03 06:35 NW 13 16.09 Fair CLR 4.6 2.1 84% 2 75.67 0.0
03 06:15 NW 11 16.09 Fair CLR 4.5 2 84% 2 75.64 0.0
03 05:55 NW 13 16.09 Fair CLR 5.1 2.2 82% 3 75.64 0.0
03 05:35 NW 13 16.09 Fair CLR 5 2 81% 2 75.64 0.0
03 05:15 NW 9 16.09 Fair CLR 6 2.3 77% 4 75.64 0.0
03 04:55 NW 13 16.09 Fair CLR 7 2.6 74% 5 75.62 0.0
03 04:35 NW 17 16.09 Fair CLR 7 2.6 74% 4 75.62 0.0
03 04:15 NW 17 16.09 Fair CLR 7.3 3 74% 5 75.59 0.0
03 03:55 NW 15 16.09 Fair CLR 7.5 2.6 71% 5 75.59 0.0
03 03:35 NW 17 16.09 Fair CLR 8.4 3 69% 6 75.57 0.0
03 03:15 NW 22 G 33 16.09 Fair CLR 8.5 2.9 68% 6 75.54 0.0
03 02:55 NW 22 G 35 16.09 Fair CLR 9 2.9 66% 6 75.54 0.0
03 02:35 N 26 G 33 16.09 Fair CLR 9.6 2.6 62% 7 75.51 0.0
03 02:15 N 26 G 33 16.09 Fair CLR 9.7 2.8 62% 7 75.49 0.0
03 01:55 NW 20 16.09 Fair CLR 10.2 3 61% 75.49 0.0
03 01:35 NW 19 16.09 Fair CLR 10.8 2.8 58% 75.46 0.0
03 01:15 NW 19 16.09 Fair CLR 10.8 1.9 54% 75.46 0.0
03 00:55 NW 15 16.09 Fair CLR 11.1 1.3 19.2 10.1 51% 75.46 0.0
03 00:35 NW 11 16.09 Fair CLR 11.4 2.4 54% 75.46 0.0
03 00:15 NW 7 16.09 Fair CLR 10.8 1.1 51% 75.46 0.0
02 23:55 NW 9 16.09 Fair CLR 11.5 1 49% 75.44 0.0
02 23:35 N 11 16.09 Fair CLR 11.2 1.9 53% 75.44 0.0
02 23:15 SW 7 16.09 Fair CLR 10.6 1.6 54% 75.41 0.0
02 22:55 SW 11 16.09 Fair CLR 10.9 2.1 55% 75.41 0.0
02 22:35 S 11 16.09 Fair CLR 10.4 1.3 54% 75.41 0.0
02 22:15 S 11 16.09 Fair CLR 12.5 0.4 44% 75.44 0.0
02 21:55 S 9 16.09 Partly Cloudy SCT100 SCT120 12.5 1 46% 75.44 0.0
02 21:35 S 9 16.09 Mostly Cloudy BKN100 14.1 1.4 42% 75.46 0.0
02 21:15 S 15 16.09 Mostly Cloudy BKN100 14.3 1 41% 75.46 0.0
02 20:55 S 24 16.09 Mostly Cloudy SCT100 BKN120 14.7 0.9 39% 75.44 0.0
02 20:35 S 20 16.09 Mostly Cloudy BKN100 BKN120 16.2 -1 31% 75.46 0.0
02 20:15 S 20 16.09 Partly Cloudy SCT100 SCT120 16.6 -1.1 30% 75.49 0.0
02 19:55 S 20 16.09 Mostly Cloudy BKN110 17.3 -1.9 27% 75.49 0.0
02 19:35 S 20 16.09 Partly Cloudy SCT110 18.1 -2.4 25% 75.51 0.0
02 19:15 SW 20 16.09 Fair CLR 19.1 -2.1 24% 75.54 0.0
02 18:55 SW 20 G 30 16.09 Partly Cloudy SCT110 18.7 -2.6 21.7 17.9 24% 75.59 0.0
02 18:35 S 20 16.09 Partly Cloudy SCT120 18.9 -1.5 25% 75.62 0.0
02 18:15 S 22 G 30 16.09 Partly Cloudy SCT090 SCT110 19.3 -2.7 23% 75.64 0.0
02 17:55 SW 30 G 52 16.09 Mostly Cloudy BKN090 18.7 -4.4 21% 75.69 0.0
02 17:35 SW 19 G 52 16.09 Mostly Cloudy SCT065 SCT080 BKN090 18.5 -3.8 22% 75.72 0.0
02 17:15 SW 39 G 50 16.09 Mostly Cloudy and Breezy BKN080 BKN090 19 -3.3 22% 75.79 0.0
02 16:55 Calm 16.09 Mostly Cloudy SCT050 BKN070 BKN090 18.3 -2.5 24% 75.79 0.0
02 16:35 SW 9 16.09 Mostly Cloudy SCT070 BKN090 18.5 -4.4 21% 75.82 0.0
02 16:15 W 17 G 44 16.09 Mostly Cloudy SCT070 SCT080 BKN090 18.3 -4.4 21% 75.84 0.0
02 15:55 W 28 G 56 16.09 Partly Cloudy SCT060 SCT070 SCT090 18.9 -4.1 21% 75.87 0.0
02 15:35 W 39 G 52 16.09 Partly Cloudy and Breezy SCT090 SCT120 19.6 -2.7 22% 75.84 0.0
02 15:15 W 30 G 41 16.09 Partly Cloudy SCT090 SCT120 19.9 -2.8 22% 75.84 0.0
02 14:55 W 31 G 41 16.09 Partly Cloudy SCT090 19.8 -2.7 22% 75.87 0.0
02 14:35 W 33 G 41 16.09 Partly Cloudy and Breezy SCT085 20 -3.1 21% 75.9 0.0
02 14:15 W 24 G 44 16.09 Partly Cloudy SCT085 20.3 -2.2 22% 75.9 0.0
02 13:55 W 24 G 39 16.09 Fair CLR 21.4 -1.2 22% 75.92 0.0
02 13:35 W 24 G 41 16.09 Fair CLR 19.7 -1.4 24% 75.95 0.0
02 13:15 W 26 G 39 16.09 Fair CLR 20.4 -1 24% 75.97 0.0
02 12:55 W 28 G 35 16.09 Fair CLR 19.6 -0.7 19.7 1.5 26% 76 0.0
02 12:35 W 20 G 37 16.09 Fair CLR 19.3 -0.4 27% 76.02 0.0
02 12:15 W 13 G 37 16.09 Fair CLR 18.5 -0.6 28% 76.05 0.0
02 11:55 W 24 G 31 16.09 Fair CLR 18 0.1 30% 76.07 0.0
02 11:35 W 24 G 33 16.09 Fair CLR 17.1 0.4 32% 76.1 0.0
02 11:15 W 20 G 28 16.09 Fair CLR 16.5 0.1 33% 76.12 0.0
02 10:55 SW 20 G 35 16.09 Fair CLR 15.5 -0.2 34% 76.15 0.0
02 10:35 W 26 16.09 Fair CLR 15.4 -0.1 35% 76.17 0.0
02 10:15 SW 22 G 31 16.09 Fair CLR 14.1 0.1 39% 76.17 0.0
02 09:55 SW 20 16.09 Partly Cloudy SCT100 13 0 41% 76.2 0.0
02 09:35 SW 20 16.09 Partly Cloudy SCT100 11.7 -0.9 42% 76.2 0.0
02 09:15 SW 26 16.09 Partly Cloudy SCT100 11 -1.1 43% 76.23 0.0
02 08:55 SW 24 16.09 Partly Cloudy SCT100 9.6 -1.2 47% 7 76.25 0.0
02 08:35 SW 19 16.09 Partly Cloudy SCT100 8.1 -1.1 53% 5 76.28 0.0
02 08:15 SW 15 16.09 Partly Cloudy SCT100 6.8 -0.9 58% 4 76.3 0.0
02 07:55 S 13 16.09 Fair CLR 5.3 -0.8 65% 3 76.3 0.0
02 07:35 S 11 16.09 Fair CLR 4.1 -1.1 69% 2 76.3 0.0
02 07:15 S 13 16.09 Fair CLR 2.8 -1.8 72% -0 76.3 0.0
02 06:55 S 13 16.09 Fair CLR 1.4 -2.7 5.7 0.5 74% -2 76.3 0.0
02 06:35 S 13 16.09 Fair CLR 0.5 -3.3 76% -3 76.3 0.0
02 06:15 S 11 16.09 Fair CLR 0.5 -3.5 75% -3 76.33 0.0
02 05:55 S 11 16.09 Fair CLR 0.8 -3.5 73% -2 76.33 0.0
02 05:35 S 11 16.09 Partly Cloudy SCT090 1.3 -3.2 72% -2 76.35 0.0
02 05:15 S 11 16.09 Partly Cloudy SCT090 1.2 -3.4 72% -2 76.35 0.0
02 04:55 S 11 16.09 Partly Cloudy SCT090 1.2 -3.5 71% -2 76.35 0.0
02 04:35 SW 11 16.09 Mostly Cloudy BKN090 1.6 -3 72% -1 76.38 0.0
02 04:15 S 9 16.09 Partly Cloudy SCT090 1.6 -3.5 69% -1 76.38 0.0
02 03:55 S 11 16.09 Fair CLR 1.9 -3.6 67% -1 76.38 0.0
02 03:35 S 9 16.09 Fair CLR 2.5 -2.9 68% 0 76.38 0.0
02 03:15 SW 9 16.09 Fair CLR 2.1 -2.3 73% -0 76.38 0.0
02 02:55 S 7 16.09 Fair CLR 2.6 -2.3 70% 1 76.4 0.0
02 02:35 SW 9 16.09 Fair CLR 2.3 -3 68% -0 76.4 0.0
02 02:15 SW 7 16.09 Fair CLR 3.4 -2.7 65% 2 76.4 0.0
02 01:55 S 7 16.09 Fair CLR 4 -2.1 65% 2 76.43 0.0
02 01:35 S 7 16.09 Fair CLR 5.4 -3 55% 4 76.43 0.0
02 01:15 S 7 16.09 Fair CLR 5.2 -3.1 55% 4 76.43 0.0
02 00:55 S 6 16.09 Fair CLR 5.7 -3.5 11.6 3 52% 76.45 0.0
02 00:35 S 6 16.09 Fair CLR 4.9 -3 57% 76.43 0.0
02 00:15 S 7 16.09 Fair CLR 3.9 -1.8 67% 2 76.45 0.0
01 23:55 SW 9 16.09 Fair CLR 3.3 -2.2 68% 1 76.45 0.0
01 23:35 SW 9 16.09 Fair CLR 3.2 -1.6 71% 1 76.45 0.0
01 23:15 SW 7 16.09 Fair CLR 5.3 -3.5 53% 4 76.48 0.0
01 22:55 Calm 16.09 Fair CLR 7 -2.2 52% 76.48 0.0
01 22:35 Calm 16.09 Fair CLR 7.4 -0.2 59% 76.48 0.0
01 22:15 Calm 16.09 Fair CLR 7.1 2.1 71% 76.48 0.0
01 21:55 Calm 16.09 Fair CLR 7.6 -0.2 58% 76.48 0.0
01 21:35 Calm 16.09 Fair CLR 8.3 -1.5 50% 76.45 0.0
01 21:15 Calm 16.09 Fair CLR 8.1 -1.9 50% 76.45 0.0
01 20:55 N 6 16.09 Fair CLR 8.7 -4.1 41% 76.45 0.0
01 20:35 N 7 16.09 Fair CLR 10 -4.7 35% 9 76.45 0.0
01 20:15 N 6 16.09 Fair CLR 10.5 -4.3 35% 76.43 0.0
01 19:55 NW 11 16.09 Fair CLR 10.9 -5.3 32% 76.43 0.0
01 19:35 N 13 16.09 Fair CLR 11.3 -5.5 31% 76.43 0.0
01 19:15 NW 15 16.09 Fair CLR 11.5 -5.2 31% 76.43 0.0
01 18:55 NW 15 16.09 Fair CLR 11.6 -5.2 12.4 9.2 31% 76.43 0.0
01 18:35 W 9 16.09 Fair CLR 11.7 -6.3 28% 76.43 0.0
01 18:15 NW 13 16.09 Fair CLR 11.6 -5.7 30% 76.43 0.0
01 17:55 N 19 G 26 16.09 Fair CLR 12.1 -6 28% 76.43 0.0
01 17:35 NW 15 16.09 Fair CLR 11.7 -5.3 30% 76.43 0.0
01 17:15 N 9 16.09 Partly Cloudy SCT065 11.5 -5.5 30% 76.43 0.0
01 16:55 W 15 16.09 Mostly Cloudy BKN065 12.3 -5.3 29% 76.45 0.0
01 16:35 NW 15 16.09 Partly Cloudy SCT065 11.2 -5 32% 76.45 0.0
01 16:15 NW 6 16.09 Mostly Cloudy BKN065 11.3 -6.3 29% 76.45 0.0
01 15:55 NW 13 16.09 Mostly Cloudy BKN065 11.5 -5.6 30% 76.48 0.0
01 15:35 N 17 16.09 Partly Cloudy SCT065 11.4 -6.1 29% 76.48 0.0
01 15:15 N 13 16.09 Partly Cloudy SCT065 10.5 -6.2 31% 76.48 0.0
01 14:55 N 11 16.09 Mostly Cloudy BKN065 11.1 -6.3 29% 76.48 0.0
01 14:15 Calm 16.09 Partly Cloudy SCT065 10.4 -6.7 30% 76.5 0.0
01 13:55 W 7 16.09 Partly Cloudy SCT065 10.2 -6.8 30% 76.5 0.0
01 13:35 N 11 16.09 Fair CLR 10 -6.9 30% 9 76.5 0.0
01 13:15 N 7 16.09 Partly Cloudy SCT060 9.8 -6.5 31% 9 76.5 0.0
01 12:55 Calm 16.09 Partly Cloudy SCT060 9.1 -6.7 9.5 -0.7 32% 76.53 0.0
01 12:35 N 11 16.09 Partly Cloudy SCT060 9.5 -6.1 33% 8 76.53 0.0
01 12:15 NE 9 16.09 Fair CLR 9.2 -6.3 33% 8 76.53 0.0
01 11:55 N 13 16.09 Partly Cloudy SCT055 8.6 -6.4 34% 7 76.53 0.0
01 11:35 N 6 16.09 Partly Cloudy SCT055 8.3 -6.3 35% 76.56 0.0
01 11:15 N 11 16.09 Partly Cloudy SCT050 7.3 -6.2 38% 5 76.56 0.0
01 10:55 NE 11 16.09 Partly Cloudy SCT050 7.3 -6 39% 5 76.56 0.0
01 10:35 N 15 16.09 Partly Cloudy SCT048 7.2 -5.6 40% 5 76.56 0.0
01 10:15 N 9 16.09 Partly Cloudy SCT048 7.2 -4.9 42% 6 76.56 0.0
01 09:55 NE 7 16.09 Partly Cloudy SCT050 6.6 -4.8 44% 5 76.56 0.0
01 09:35 NW 6 16.09 Overcast OVC050 5.7 -1.4 61% 76.56 0.0
01 09:15 Calm 16.09 Overcast OVC050 4.7 -1.4 65% 76.56 0.0
01 08:55 Calm 16.09 Overcast OVC050 3.5 -0.8 74% 76.56 0.0
Date Time (cdt) Wind (kph) Vis. (km) Weather Sky Cond. Air Dwpt Max. Min. Relative Humidity Wind Chill (°C) Heat Index (°C) altimeter (cm) sea level (mb) 1 hr 3 hr 6 hr
6 hour
Temperature (ºC) Pressure Precipitation (cm)